createdAt,value
2019-01-08T00:00:51.860Z,30.57
2019-01-08T00:03:24.831Z,23.43
2019-01-08T00:05:58.599Z,26.70
2019-01-08T00:08:31.651Z,26.80
2019-01-08T00:11:04.864Z,32.53
2019-01-08T00:13:38.496Z,39.20
2019-01-08T00:16:11.373Z,35.43
2019-01-08T00:18:44.458Z,34.30
2019-01-08T00:21:18.582Z,32.87
2019-01-08T00:23:52.228Z,31.63
2019-01-08T00:26:25.147Z,31.40
2019-01-08T00:28:59.475Z,23.83
2019-01-08T00:31:32.609Z,20.75
2019-01-08T00:34:05.645Z,18.85
2019-01-08T00:36:39.104Z,20.30
2019-01-08T00:39:11.950Z,14.50
2019-01-08T00:41:44.931Z,16.10
2019-01-08T00:44:18.361Z,14.90
2019-01-08T00:46:51.721Z,16.37
2019-01-08T00:49:26.386Z,16.45
2019-01-08T00:52:00.786Z,10.87
2019-01-08T00:54:34.357Z,14.53
2019-01-08T00:57:07.338Z,10.00
2019-01-08T00:59:41.779Z,8.47
2019-01-08T01:02:14.775Z,14.18
2019-01-08T01:04:47.727Z,11.30
2019-01-08T01:07:21.996Z,15.67
2019-01-08T01:09:54.996Z,16.93
2019-01-08T01:12:28.019Z,18.80
2019-01-08T01:15:03.959Z,17.17
2019-01-08T01:17:36.924Z,15.90
2019-01-08T01:20:09.972Z,15.73
2019-01-08T01:22:43.394Z,14.97
2019-01-08T01:25:16.638Z,21.03
2019-01-08T01:27:49.877Z,17.97
2019-01-08T01:30:24.168Z,16.47
2019-01-08T01:32:57.183Z,18.77
2019-01-08T01:35:30.148Z,19.10
2019-01-08T01:38:04.611Z,15.83
2019-01-08T01:40:37.572Z,15.77
2019-01-08T01:43:10.601Z,18.63
2019-01-08T01:45:44.008Z,19.53
2019-01-08T01:48:16.908Z,16.80
2019-01-08T01:50:49.982Z,14.67
2019-01-08T01:53:23.454Z,16.98
2019-01-08T01:55:56.959Z,18.07
2019-01-08T01:58:29.996Z,15.70
2019-01-08T02:01:04.553Z,16.12
2019-01-08T02:03:37.551Z,12.20
2019-01-08T02:06:11.127Z,16.27
2019-01-08T02:08:46.122Z,17.53
2019-01-08T02:11:19.022Z,18.17
2019-01-08T02:13:58.663Z,16.77
2019-01-08T02:16:36.725Z,18.90
2019-01-08T02:19:14.597Z,15.60
2019-01-08T02:21:52.600Z,16.50
2019-01-08T02:24:30.884Z,14.57
2019-01-08T02:27:08.643Z,23.80
2019-01-08T02:29:46.248Z,16.33
2019-01-08T02:32:24.427Z,15.40
2019-01-08T02:35:02.277Z,25.77
2019-01-08T02:37:40.238Z,20.50
2019-01-08T02:40:18.793Z,20.97
2019-01-08T02:42:56.426Z,15.03
2019-01-08T02:45:34.092Z,17.70
2019-01-08T02:48:12.266Z,19.33
2019-01-08T02:50:49.898Z,20.05
2019-01-08T02:53:27.647Z,17.87
2019-01-08T02:56:05.911Z,17.93
2019-01-08T02:58:43.450Z,16.53
2019-01-08T03:01:21.303Z,15.77
2019-01-08T03:03:59.661Z,16.87
2019-01-08T03:06:38.476Z,21.47
2019-01-08T03:09:16.311Z,18.00
2019-01-08T03:11:55.687Z,18.93
2019-01-08T03:14:33.313Z,17.67
2019-01-08T03:17:10.964Z,19.27
2019-01-08T03:19:49.169Z,23.00
2019-01-08T03:22:27.290Z,18.70
2019-01-08T03:25:05.443Z,21.00
2019-01-08T03:27:44.633Z,14.80
2019-01-08T03:30:22.598Z,17.63
2019-01-08T03:33:00.511Z,14.57
2019-01-08T03:35:38.805Z,16.70
2019-01-08T03:38:19.992Z,20.23
2019-01-08T03:40:58.248Z,15.30
2019-01-08T03:43:36.853Z,21.27
2019-01-08T03:46:14.735Z,25.10
2019-01-08T03:48:52.324Z,19.43
2019-01-08T03:51:30.732Z,20.03
2019-01-08T03:54:08.560Z,25.97
2019-01-08T03:56:48.513Z,23.53
2019-01-08T03:59:26.821Z,16.53
2019-01-08T04:02:04.615Z,23.87
2019-01-08T04:04:42.474Z,19.97
2019-01-08T04:07:20.571Z,29.47
2019-01-08T04:09:58.510Z,19.27
2019-01-08T04:12:36.187Z,22.52
2019-01-08T04:15:16.109Z,15.70
2019-01-08T04:17:53.932Z,18.60
2019-01-08T04:20:31.684Z,18.47
2019-01-08T04:23:09.881Z,21.40
2019-01-08T04:25:47.714Z,22.13
2019-01-08T04:28:25.924Z,21.57
2019-01-08T04:31:05.779Z,19.77
2019-01-08T04:33:43.448Z,19.83
2019-01-08T04:36:21.172Z,22.27
2019-01-08T04:38:59.236Z,17.67
2019-01-08T04:41:37.135Z,20.53
2019-01-08T04:44:14.626Z,21.23
2019-01-08T04:46:53.092Z,17.67
2019-01-08T04:49:30.884Z,18.77
2019-01-08T04:52:09.004Z,19.50
2019-01-08T04:54:48.098Z,21.43
2019-01-08T04:57:26.060Z,21.57
2019-01-08T05:00:05.435Z,20.95
2019-01-08T05:02:44.080Z,17.50
2019-01-08T05:05:17.027Z,21.73
2019-01-08T05:07:50.112Z,20.90
2019-01-08T05:10:30.418Z,21.00
2019-01-08T05:13:03.415Z,22.50
2019-01-08T05:15:36.379Z,19.97
2019-01-08T05:18:10.892Z,18.73
2019-01-08T05:20:43.683Z,21.77
2019-01-08T05:23:17.481Z,19.67
2019-01-08T05:25:51.166Z,18.40
2019-01-08T05:28:24.131Z,18.57
2019-01-08T05:30:57.026Z,27.17
2019-01-08T05:33:30.073Z,21.87
2019-01-08T05:36:03.078Z,24.93
2019-01-08T05:38:36.068Z,19.47
2019-01-08T05:41:09.461Z,23.57
2019-01-08T05:43:42.421Z,18.77
2019-01-08T05:46:15.403Z,25.87
2019-01-08T05:48:48.846Z,23.33
2019-01-08T05:51:21.802Z,19.60
2019-01-08T05:53:54.820Z,24.27
2019-01-08T05:56:28.227Z,19.98
2019-01-08T05:59:01.105Z,23.50
2019-01-08T06:01:33.996Z,16.47
2019-01-08T06:04:07.516Z,22.27
2019-01-08T06:06:40.309Z,22.30
2019-01-08T06:09:13.313Z,20.93
2019-01-08T06:11:46.373Z,22.47
2019-01-08T06:14:19.291Z,23.93
2019-01-08T06:16:52.304Z,23.00
2019-01-08T06:19:25.667Z,23.87
2019-01-08T06:21:58.542Z,27.80
2019-01-08T06:24:32.085Z,26.07
2019-01-08T06:27:05.500Z,26.30
2019-01-08T06:29:38.420Z,25.07
2019-01-08T06:32:11.310Z,21.63
2019-01-08T06:34:44.772Z,22.00
2019-01-08T06:37:17.679Z,25.47
2019-01-08T06:39:51.407Z,20.10
2019-01-08T06:42:24.720Z,26.73
2019-01-08T06:44:57.627Z,20.60
2019-01-08T06:47:30.947Z,20.80
2019-01-08T06:50:05.955Z,23.70
2019-01-08T06:52:39.056Z,22.07
2019-01-08T06:55:15.525Z,27.57
2019-01-08T06:57:49.980Z,29.90
2019-01-08T07:00:22.844Z,26.25
2019-01-08T07:02:55.683Z,21.27
2019-01-08T07:05:30.979Z,21.63
2019-01-08T07:08:04.990Z,30.00
2019-01-08T07:10:37.901Z,25.07
2019-01-08T07:13:11.712Z,26.17
2019-01-08T07:15:44.871Z,22.20
2019-01-08T07:18:17.792Z,25.60
2019-01-08T07:20:52.337Z,26.23
2019-01-08T07:23:26.085Z,21.73
2019-01-08T07:25:59.187Z,19.20
2019-01-08T07:28:32.341Z,21.97
2019-01-08T07:31:05.298Z,28.60
2019-01-08T07:33:38.235Z,25.63
2019-01-08T07:36:12.679Z,25.83
2019-01-08T07:38:45.643Z,26.63
2019-01-08T07:41:18.699Z,22.93
2019-01-08T07:43:52.071Z,24.40
2019-01-08T07:46:25.065Z,30.27
2019-01-08T07:48:58.028Z,24.47
2019-01-08T07:51:32.957Z,24.63
2019-01-08T07:54:06.279Z,27.00
2019-01-08T07:56:39.303Z,20.87
2019-01-08T07:59:12.175Z,30.57
2019-01-08T08:01:45.638Z,25.07
2019-01-08T08:04:18.605Z,29.70
2019-01-08T08:06:52.892Z,27.37
2019-01-08T08:09:25.819Z,26.57
2019-01-08T08:11:59.871Z,20.03
2019-01-08T08:14:34.297Z,21.97
2019-01-08T08:17:10.956Z,21.63
2019-01-08T08:19:44.275Z,20.57
2019-01-08T08:22:18.640Z,23.30
2019-01-08T08:24:51.867Z,22.33
2019-01-08T08:27:24.909Z,23.43
2019-01-08T08:29:58.261Z,21.07
2019-01-08T08:32:31.385Z,30.10
2019-01-08T08:35:08.511Z,25.60
2019-01-08T08:37:45.805Z,21.90
2019-01-08T08:40:19.248Z,22.23
2019-01-08T08:42:52.749Z,22.13
2019-01-08T08:45:26.524Z,22.47
2019-01-08T08:48:00.196Z,15.80
2019-01-08T08:50:35.303Z,17.80
2019-01-08T08:53:08.525Z,14.70
2019-01-08T08:55:42.411Z,11.33
2019-01-08T08:58:15.978Z,13.33
2019-01-08T09:00:48.912Z,24.00
2019-01-08T09:03:21.907Z,21.47
2019-01-08T09:05:55.511Z,20.88
2019-01-08T09:08:28.514Z,19.70
2019-01-08T09:11:01.901Z,18.13
2019-01-08T09:13:34.928Z,14.97
2019-01-08T09:16:07.852Z,18.13
2019-01-08T09:18:41.158Z,16.70
2019-01-08T09:21:14.589Z,16.83
2019-01-08T09:23:47.668Z,15.33
2019-01-08T09:26:20.623Z,21.57
2019-01-08T09:28:55.729Z,17.30
2019-01-08T09:31:29.475Z,19.60
2019-01-08T09:34:02.777Z,17.80
2019-01-08T09:36:35.689Z,11.97
2019-01-08T09:39:09.903Z,15.20
2019-01-08T09:41:42.847Z,14.97
2019-01-08T09:44:15.879Z,17.90
2019-01-08T09:46:51.227Z,18.73
2019-01-08T09:49:25.954Z,21.47
2019-01-08T09:51:59.061Z,21.80
2019-01-08T09:54:35.315Z,16.20
2019-01-08T09:57:08.913Z,19.57
2019-01-08T09:59:44.015Z,17.07
2019-01-08T10:02:19.222Z,17.70
2019-01-08T10:04:53.759Z,18.67
2019-01-08T10:07:26.642Z,20.23
2019-01-08T10:10:00.304Z,21.43
2019-01-08T10:12:33.212Z,20.40
2019-01-08T10:15:13.677Z,17.70
2019-01-08T10:17:48.081Z,19.87
2019-01-08T10:20:21.069Z,21.50
2019-01-08T10:22:54.687Z,25.40
2019-01-08T10:25:28.444Z,22.07
2019-01-08T10:28:02.902Z,27.73
2019-01-08T10:30:36.436Z,25.30
2019-01-08T10:33:09.459Z,21.40
2019-01-08T10:35:44.855Z,27.27
2019-01-08T10:38:17.919Z,32.23
2019-01-08T10:40:50.840Z,26.70
2019-01-08T10:43:23.862Z,24.87
2019-01-08T10:45:56.797Z,27.13
2019-01-08T10:48:29.809Z,29.03
2019-01-08T10:51:02.800Z,26.67
2019-01-08T10:53:37.028Z,27.43
2019-01-08T10:56:10.002Z,23.90
2019-01-08T10:58:43.021Z,30.20
2019-01-08T11:01:16.683Z,28.07
2019-01-08T11:03:50.213Z,19.27
2019-01-08T11:06:23.265Z,27.83
2019-01-08T11:08:57.435Z,19.57
2019-01-08T11:11:30.610Z,21.17
2019-01-08T11:14:03.619Z,21.77
2019-01-08T11:16:38.102Z,24.92
2019-01-08T11:19:11.079Z,25.43
2019-01-08T11:21:44.083Z,24.77
2019-01-08T11:24:17.107Z,22.67
2019-01-08T11:26:50.064Z,22.90
2019-01-08T11:29:23.091Z,23.80
2019-01-08T11:31:56.064Z,20.10
2019-01-08T11:34:29.065Z,20.53
2019-01-08T11:37:02.664Z,23.77
2019-01-08T11:39:35.586Z,19.80
2019-01-08T11:42:08.588Z,22.40
2019-01-08T11:44:41.612Z,18.67
2019-01-08T11:47:15.909Z,19.13
2019-01-08T11:49:48.869Z,24.00
2019-01-08T11:52:22.037Z,24.60
2019-01-08T11:54:55.360Z,15.68
2019-01-08T11:57:28.385Z,16.23
2019-01-08T12:00:04.759Z,19.40
2019-01-08T12:02:38.349Z,20.07
2019-01-08T12:05:11.402Z,16.67
2019-01-08T12:07:45.449Z,23.57
2019-01-08T12:10:19.077Z,15.90
2019-01-08T12:12:52.894Z,20.63
2019-01-08T12:15:25.716Z,29.65
2019-01-08T12:18:01.850Z,22.10
2019-01-08T12:20:34.871Z,21.50
2019-01-08T12:23:08.149Z,16.90
2019-01-08T12:25:41.628Z,16.10
2019-01-08T12:28:15.484Z,15.23
2019-01-08T12:30:48.648Z,15.60
2019-01-08T12:33:24.164Z,15.43
2019-01-08T12:35:57.203Z,17.90
2019-01-08T12:38:31.369Z,16.60
2019-01-08T12:41:05.009Z,16.20
2019-01-08T12:43:38.301Z,17.33
2019-01-08T12:46:12.579Z,19.50
2019-01-08T12:48:45.885Z,16.17
2019-01-08T12:51:20.412Z,18.52
2019-01-08T12:53:54.274Z,23.53
2019-01-08T12:56:27.806Z,22.60
2019-01-08T12:59:00.861Z,23.47
2019-01-08T13:01:33.811Z,20.03
2019-01-08T13:04:06.859Z,23.40
2019-01-08T13:06:39.791Z,29.17
2019-01-08T13:09:12.833Z,27.57
2019-01-08T13:11:46.156Z,23.60
2019-01-08T13:14:19.247Z,29.93
2019-01-08T13:16:56.777Z,25.27
2019-01-08T13:19:30.170Z,22.23
2019-01-08T13:22:04.785Z,22.03
2019-01-08T13:24:38.418Z,25.10
2019-01-08T13:27:12.543Z,27.60
2019-01-08T13:29:47.077Z,20.50
2019-01-08T13:32:23.188Z,20.43
2019-01-08T13:34:57.262Z,24.77
2019-01-08T13:37:30.832Z,19.27
2019-01-08T13:40:05.094Z,14.83
2019-01-08T13:42:38.023Z,17.63
2019-01-08T13:45:14.648Z,17.90
2019-01-08T13:47:48.103Z,21.37
2019-01-08T13:50:25.239Z,24.30
2019-01-08T13:53:02.018Z,28.30
2019-01-08T13:55:36.523Z,22.37
2019-01-08T13:58:10.565Z,22.77
2019-01-08T14:00:44.329Z,24.20
2019-01-08T14:03:21.064Z,18.90
2019-01-08T14:05:55.624Z,20.40
2019-01-08T14:08:31.064Z,15.77
2019-01-08T14:11:04.351Z,13.77
2019-01-08T14:13:38.974Z,10.33
2019-01-08T14:16:15.569Z,14.47
2019-01-08T14:18:49.161Z,14.63
2019-01-08T14:21:24.399Z,17.07
2019-01-08T14:23:57.688Z,9.73
2019-01-08T14:26:31.364Z,13.67
2019-01-08T14:29:06.257Z,22.00
2019-01-08T14:31:40.969Z,22.73
2019-01-08T14:34:13.861Z,13.80
2019-01-08T14:36:48.254Z,17.73
2019-01-08T14:39:22.582Z,26.57
2019-01-08T14:41:56.492Z,21.70
2019-01-08T14:44:30.171Z,21.07
2019-01-08T14:47:03.252Z,19.53
2019-01-08T14:49:37.232Z,12.30
2019-01-08T14:52:12.287Z,9.47
2019-01-08T14:54:45.321Z,12.27
2019-01-08T14:57:18.655Z,12.63
2019-01-08T14:59:52.156Z,10.53
2019-01-08T15:02:26.220Z,12.53
2019-01-08T15:04:59.254Z,9.73
2019-01-08T15:07:33.434Z,15.57
2019-01-08T15:10:07.219Z,16.30
2019-01-08T15:12:40.857Z,11.67
2019-01-08T15:15:15.905Z,13.30
2019-01-08T15:17:49.714Z,11.53
2019-01-08T15:20:23.201Z,14.63
2019-01-08T15:22:57.190Z,13.77
2019-01-08T15:25:30.408Z,17.00
2019-01-08T15:28:05.687Z,13.30
2019-01-08T15:30:40.387Z,14.40
2019-01-08T15:33:16.512Z,17.33
2019-01-08T15:35:55.485Z,18.40
2019-01-08T15:38:28.992Z,21.40
2019-01-08T15:41:02.474Z,15.00
2019-01-08T15:43:35.531Z,17.13
2019-01-08T15:46:08.844Z,19.70
2019-01-08T15:48:42.909Z,20.27
2019-01-08T15:51:16.168Z,14.70
2019-01-08T15:53:51.524Z,24.23
2019-01-08T15:56:27.381Z,23.43
2019-01-08T15:59:04.375Z,19.07
2019-01-08T16:01:37.425Z,23.35
2019-01-08T16:04:13.519Z,24.30
2019-01-08T16:06:46.712Z,19.20
2019-01-08T16:09:19.835Z,17.83
2019-01-08T16:11:54.635Z,20.10
2019-01-08T16:14:28.434Z,19.70
2019-01-08T16:17:04.158Z,22.13
2019-01-08T16:19:37.931Z,18.93
2019-01-08T16:22:11.091Z,16.03
2019-01-08T16:24:45.240Z,25.90
2019-01-08T16:27:19.555Z,19.93
2019-01-08T16:29:53.283Z,20.13
2019-01-08T16:32:29.607Z,20.80
2019-01-08T16:35:04.509Z,20.77
2019-01-08T16:37:37.689Z,19.77
2019-01-08T16:40:11.704Z,24.17
2019-01-08T16:42:46.306Z,19.10
2019-01-08T16:45:19.953Z,21.47
2019-01-08T16:47:53.020Z,18.50
2019-01-08T16:50:26.546Z,16.70
2019-01-08T16:52:59.631Z,19.37
2019-01-08T16:55:32.861Z,20.03
2019-01-08T16:58:08.505Z,14.27
2019-01-08T17:00:42.994Z,15.07
2019-01-08T17:03:24.498Z,16.33
2019-01-08T17:05:59.501Z,15.90
2019-01-08T17:08:32.515Z,14.50
2019-01-08T17:11:05.614Z,11.03
2019-01-08T17:13:39.699Z,18.97
2019-01-08T17:16:13.124Z,15.30
2019-01-08T17:18:46.258Z,21.47
2019-01-08T17:21:19.388Z,18.43
2019-01-08T17:23:53.215Z,17.90
2019-01-08T17:26:26.571Z,15.30
2019-01-08T17:29:00.334Z,14.80
2019-01-08T17:31:33.752Z,18.40
2019-01-08T17:34:13.962Z,21.53
2019-01-08T17:36:47.847Z,15.67
2019-01-08T17:39:24.956Z,17.47
2019-01-08T17:41:58.480Z,19.63
2019-01-08T17:44:31.780Z,14.13
2019-01-08T17:47:04.881Z,14.53
2019-01-08T17:49:37.904Z,13.47
2019-01-08T17:52:12.494Z,12.20
2019-01-08T17:54:45.985Z,16.10
2019-01-08T17:57:19.597Z,17.17
2019-01-08T17:59:52.764Z,14.97
2019-01-08T18:02:27.125Z,18.60
2019-01-08T18:05:00.185Z,18.53
2019-01-08T18:07:33.861Z,13.80
2019-01-08T18:10:11.150Z,16.57
2019-01-08T18:12:44.157Z,19.13
2019-01-08T18:15:17.175Z,16.73
2019-01-08T18:17:50.757Z,16.97
2019-01-08T18:20:24.085Z,20.80
2019-01-08T18:22:57.072Z,18.43
2019-01-08T18:25:30.421Z,23.57
2019-01-08T18:28:03.357Z,17.47
2019-01-08T18:30:43.295Z,21.87
2019-01-08T18:33:17.723Z,22.23
2019-01-08T18:35:50.734Z,24.70
2019-01-08T18:38:24.291Z,20.33
2019-01-08T18:40:57.444Z,17.57
2019-01-08T18:43:30.558Z,22.03
2019-01-08T18:46:05.345Z,20.73
2019-01-08T18:48:42.746Z,23.37
2019-01-08T18:51:17.966Z,23.27
2019-01-08T18:53:53.444Z,17.10
2019-01-08T18:56:27.376Z,18.80
2019-01-08T18:59:01.115Z,20.27
2019-01-08T19:01:42.144Z,21.40
2019-01-08T19:04:18.868Z,23.00
2019-01-08T19:06:56.355Z,20.03
2019-01-08T19:09:55.174Z,22.53
2019-01-08T19:12:43.726Z,21.10
2019-01-08T19:15:39.523Z,19.30
2019-01-08T19:18:32.408Z,21.03
2019-01-08T19:21:52.087Z,15.57
2019-01-08T19:24:50.780Z,19.37
2019-01-08T19:27:31.600Z,17.48
2019-01-08T19:30:17.078Z,16.90
2019-01-08T19:32:51.556Z,15.97
2019-01-08T19:35:31.527Z,11.93
2019-01-08T19:38:06.128Z,10.87
2019-01-08T19:40:39.279Z,11.83
2019-01-08T19:43:12.891Z,6.10
2019-01-08T19:45:46.102Z,11.17
2019-01-08T19:48:20.060Z,9.23
2019-01-08T19:50:55.880Z,9.90
2019-01-08T19:53:28.976Z,10.30
2019-01-08T19:56:03.462Z,14.97
2019-01-08T19:58:36.729Z,15.67
2019-01-08T20:01:11.910Z,13.07
2019-01-08T20:03:45.647Z,19.63
2019-01-08T20:06:19.051Z,16.67
2019-01-08T20:08:53.199Z,19.57
2019-01-08T20:11:26.404Z,21.87
2019-01-08T20:13:59.470Z,17.42
2019-01-08T20:16:33.643Z,19.33
2019-01-08T20:19:10.549Z,17.20
2019-01-08T20:21:43.641Z,15.70
2019-01-08T20:24:17.309Z,22.23
2019-01-08T20:26:51.149Z,25.97
2019-01-08T20:29:25.763Z,19.87
2019-01-08T20:32:00.955Z,16.00
2019-01-08T20:34:35.530Z,16.87
2019-01-08T20:37:10.427Z,17.43
2019-01-08T20:39:45.677Z,21.87
2019-01-08T20:42:18.814Z,22.87
2019-01-08T20:44:52.027Z,22.27
2019-01-08T20:47:25.714Z,19.57
2019-01-08T20:49:58.798Z,16.07
2019-01-08T20:52:32.062Z,14.10
2019-01-08T20:55:07.597Z,18.67
2019-01-08T20:57:40.734Z,21.07
2019-01-08T21:00:16.651Z,15.57
2019-01-08T21:02:49.976Z,14.37
2019-01-08T21:05:23.508Z,12.47
2019-01-08T21:07:57.675Z,16.27
2019-01-08T21:10:31.187Z,21.52
2019-01-08T21:13:04.176Z,19.12
2019-01-08T21:15:39.731Z,13.33
2019-01-08T21:18:13.066Z,16.07
2019-01-08T21:20:47.860Z,16.90
2019-01-08T21:23:24.267Z,15.50
2019-01-08T21:25:57.296Z,15.47
2019-01-08T21:28:31.970Z,16.10
2019-01-08T21:31:07.247Z,22.30
2019-01-08T21:33:40.264Z,18.80
2019-01-08T21:36:14.792Z,18.47
2019-01-08T21:38:49.282Z,23.03
2019-01-08T21:41:23.106Z,14.63
2019-01-08T21:43:56.727Z,15.10
2019-01-08T21:46:30.740Z,16.27
2019-01-08T21:49:03.941Z,21.87
2019-01-08T21:51:40.400Z,16.75
2019-01-08T21:54:13.366Z,17.17
2019-01-08T21:56:46.393Z,17.83
2019-01-08T21:59:21.982Z,13.33
2019-01-08T22:01:56.088Z,15.88
2019-01-08T22:04:29.153Z,18.07
2019-01-08T22:07:05.756Z,13.20
2019-01-08T22:09:39.843Z,16.07
2019-01-08T22:12:17.608Z,13.13
2019-01-08T22:14:52.237Z,17.27
2019-01-08T22:17:29.418Z,10.97
2019-01-08T22:20:04.669Z,15.63
2019-01-08T22:22:38.981Z,13.97
2019-01-08T22:25:14.549Z,15.53
2019-01-08T22:27:47.623Z,17.90
2019-01-08T22:30:23.453Z,18.27
2019-01-08T22:32:57.369Z,15.37
2019-01-08T22:35:33.108Z,16.13
2019-01-08T22:38:14.839Z,24.47
2019-01-08T22:40:48.447Z,15.70
2019-01-08T22:43:22.606Z,15.10
2019-01-08T22:45:56.122Z,18.10
2019-01-08T22:48:30.871Z,14.13
2019-01-08T22:51:11.857Z,17.97
2019-01-08T22:53:46.175Z,15.63
2019-01-08T22:56:20.683Z,18.33
2019-01-08T22:58:54.625Z,18.03
2019-01-08T23:01:34.340Z,16.60
2019-01-08T23:04:08.916Z,17.40
2019-01-08T23:06:43.960Z,13.65
2019-01-08T23:09:18.448Z,17.97
2019-01-08T23:11:51.975Z,13.57
2019-01-08T23:14:26.453Z,8.43
2019-01-08T23:16:59.527Z,11.13
2019-01-08T23:19:32.543Z,16.83
2019-01-08T23:22:05.989Z,12.37
2019-01-08T23:24:38.975Z,11.70
2019-01-08T23:27:11.928Z,9.93
2019-01-08T23:29:45.564Z,7.53
2019-01-08T23:32:18.728Z,10.27
2019-01-08T23:34:51.671Z,7.87
2019-01-08T23:37:26.089Z,4.87
2019-01-08T23:40:00.097Z,6.87
2019-01-08T23:42:33.340Z,9.03
2019-01-08T23:45:10.350Z,5.30
2019-01-08T23:47:44.903Z,5.53
2019-01-08T23:50:18.455Z,8.23
2019-01-08T23:53:25.992Z,8.10
2019-01-08T23:56:28.668Z,12.77
2019-01-08T23:59:04.068Z,10.70
